sensor_id;sensor_type;location;lat;lon;timestamp;P1;durP1;ratioP1;P2;durP2;ratioP2
70707;SDS011;58277;47.316;18.908;2022-12-29T00:01:16;33.20;;;12.60;;
70707;SDS011;58277;47.316;18.908;2022-12-29T00:03:39;30.33;;;12.93;;
70707;SDS011;58277;47.316;18.908;2022-12-29T00:06:02;35.95;;;13.55;;
70707;SDS011;58277;47.316;18.908;2022-12-29T00:08:25;32.40;;;12.33;;
70707;SDS011;58277;47.316;18.908;2022-12-29T00:11:02;34.08;;;12.80;;
70707;SDS011;58277;47.316;18.908;2022-12-29T00:13:25;31.70;;;12.82;;
70707;SDS011;58277;47.316;18.908;2022-12-29T00:16:06;33.40;;;12.32;;
70707;SDS011;58277;47.316;18.908;2022-12-29T00:18:29;33.58;;;13.63;;
70707;SDS011;58277;47.316;18.908;2022-12-29T00:20:54;37.67;;;13.30;;
70707;SDS011;58277;47.316;18.908;2022-12-29T00:23:36;31.17;;;12.45;;
70707;SDS011;58277;47.316;18.908;2022-12-29T00:26:31;30.60;;;12.98;;
70707;SDS011;58277;47.316;18.908;2022-12-29T00:29:12;33.88;;;13.70;;
70707;SDS011;58277;47.316;18.908;2022-12-29T00:31:54;35.83;;;14.43;;
70707;SDS011;58277;47.316;18.908;2022-12-29T00:34:35;35.50;;;13.87;;
70707;SDS011;58277;47.316;18.908;2022-12-29T00:37:16;38.25;;;14.40;;
70707;SDS011;58277;47.316;18.908;2022-12-29T00:39:39;36.90;;;15.00;;
70707;SDS011;58277;47.316;18.908;2022-12-29T00:42:21;38.60;;;14.57;;
70707;SDS011;58277;47.316;18.908;2022-12-29T00:45:02;40.83;;;15.27;;
70707;SDS011;58277;47.316;18.908;2022-12-29T00:47:25;41.10;;;15.10;;
70707;SDS011;58277;47.316;18.908;2022-12-29T00:49:48;40.92;;;14.68;;
70707;SDS011;58277;47.316;18.908;2022-12-29T00:52:12;40.50;;;15.27;;
70707;SDS011;58277;47.316;18.908;2022-12-29T00:54:36;38.40;;;15.52;;
70707;SDS011;58277;47.316;18.908;2022-12-29T00:57:00;38.85;;;15.00;;
70707;SDS011;58277;47.316;18.908;2022-12-29T00:59:25;41.23;;;14.60;;
70707;SDS011;58277;47.316;18.908;2022-12-29T01:01:48;40.92;;;16.10;;
70707;SDS011;58277;47.316;18.908;2022-12-29T01:04:11;40.53;;;15.45;;
70707;SDS011;58277;47.316;18.908;2022-12-29T01:06:35;38.08;;;16.05;;
70707;SDS011;58277;47.316;18.908;2022-12-29T01:08:59;38.75;;;15.65;;
70707;SDS011;58277;47.316;18.908;2022-12-29T01:11:39;39.67;;;14.50;;
70707;SDS011;58277;47.316;18.908;2022-12-29T01:14:03;39.67;;;15.13;;
70707;SDS011;58277;47.316;18.908;2022-12-29T01:16:25;38.47;;;14.73;;
70707;SDS011;58277;47.316;18.908;2022-12-29T01:18:49;33.45;;;13.80;;
70707;SDS011;58277;47.316;18.908;2022-12-29T01:21:11;34.38;;;15.30;;
70707;SDS011;58277;47.316;18.908;2022-12-29T01:23:35;40.93;;;15.20;;
70707;SDS011;58277;47.316;18.908;2022-12-29T01:26:10;39.53;;;15.57;;
70707;SDS011;58277;47.316;18.908;2022-12-29T01:28:35;38.92;;;14.93;;
70707;SDS011;58277;47.316;18.908;2022-12-29T01:31:01;38.00;;;14.65;;
70707;SDS011;58277;47.316;18.908;2022-12-29T01:33:24;38.70;;;15.10;;
70707;SDS011;58277;47.316;18.908;2022-12-29T01:35:46;37.00;;;14.97;;
70707;SDS011;58277;47.316;18.908;2022-12-29T01:38:09;35.92;;;14.52;;
70707;SDS011;58277;47.316;18.908;2022-12-29T01:40:31;41.47;;;15.88;;
70707;SDS011;58277;47.316;18.908;2022-12-29T01:42:54;37.28;;;15.95;;
70707;SDS011;58277;47.316;18.908;2022-12-29T01:45:17;39.22;;;15.60;;
70707;SDS011;58277;47.316;18.908;2022-12-29T01:47:59;44.60;;;15.00;;
70707;SDS011;58277;47.316;18.908;2022-12-29T01:50:27;39.80;;;15.70;;
70707;SDS011;58277;47.316;18.908;2022-12-29T01:53:03;40.70;;;15.52;;
70707;SDS011;58277;47.316;18.908;2022-12-29T01:55:38;42.05;;;15.73;;
70707;SDS011;58277;47.316;18.908;2022-12-29T01:58:06;41.33;;;15.50;;
70707;SDS011;58277;47.316;18.908;2022-12-29T02:00:29;39.70;;;14.80;;
70707;SDS011;58277;47.316;18.908;2022-12-29T02:02:53;40.45;;;15.98;;
70707;SDS011;58277;47.316;18.908;2022-12-29T02:07:54;35.03;;;14.85;;
70707;SDS011;58277;47.316;18.908;2022-12-29T02:10:18;37.78;;;15.32;;
70707;SDS011;58277;47.316;18.908;2022-12-29T02:12:43;34.80;;;14.40;;
70707;SDS011;58277;47.316;18.908;2022-12-29T02:15:08;37.97;;;15.02;;
70707;SDS011;58277;47.316;18.908;2022-12-29T02:31:17;34.55;;;14.88;;
70707;SDS011;58277;47.316;18.908;2022-12-29T02:36:41;44.78;;;15.85;;
70707;SDS011;58277;47.316;18.908;2022-12-29T02:41:54;39.42;;;15.05;;
70707;SDS011;58277;47.316;18.908;2022-12-29T02:44:52;37.85;;;15.25;;
70707;SDS011;58277;47.316;18.908;2022-12-29T02:52:39;37.37;;;13.87;;
70707;SDS011;58277;47.316;18.908;2022-12-29T02:55:11;40.13;;;14.65;;
70707;SDS011;58277;47.316;18.908;2022-12-29T02:57:34;37.40;;;14.93;;
70707;SDS011;58277;47.316;18.908;2022-12-29T02:59:59;38.33;;;14.95;;
70707;SDS011;58277;47.316;18.908;2022-12-29T03:02:44;38.85;;;15.85;;
70707;SDS011;58277;47.316;18.908;2022-12-29T03:08:04;37.22;;;14.98;;
70707;SDS011;58277;47.316;18.908;2022-12-29T03:16:18;35.67;;;14.50;;
70707;SDS011;58277;47.316;18.908;2022-12-29T03:24:20;37.53;;;14.95;;
70707;SDS011;58277;47.316;18.908;2022-12-29T03:26:49;38.08;;;15.02;;
70707;SDS011;58277;47.316;18.908;2022-12-29T03:29:15;38.42;;;14.98;;
70707;SDS011;58277;47.316;18.908;2022-12-29T03:31:41;39.97;;;14.83;;
70707;SDS011;58277;47.316;18.908;2022-12-29T03:34:05;38.25;;;15.70;;
70707;SDS011;58277;47.316;18.908;2022-12-29T03:36:35;38.70;;;14.60;;
70707;SDS011;58277;47.316;18.908;2022-12-29T03:39:08;38.95;;;13.98;;
70707;SDS011;58277;47.316;18.908;2022-12-29T03:41:35;38.10;;;14.95;;
70707;SDS011;58277;47.316;18.908;2022-12-29T03:43:59;37.90;;;14.00;;
70707;SDS011;58277;47.316;18.908;2022-12-29T03:46:22;38.00;;;14.93;;
70707;SDS011;58277;47.316;18.908;2022-12-29T03:48:45;40.28;;;14.15;;
70707;SDS011;58277;47.316;18.908;2022-12-29T03:51:08;39.35;;;14.77;;
70707;SDS011;58277;47.316;18.908;2022-12-29T03:53:31;39.25;;;15.00;;
70707;SDS011;58277;47.316;18.908;2022-12-29T03:55:55;39.23;;;14.53;;
70707;SDS011;58277;47.316;18.908;2022-12-29T03:58:17;36.60;;;13.93;;
70707;SDS011;58277;47.316;18.908;2022-12-29T04:00:56;38.15;;;14.70;;
70707;SDS011;58277;47.316;18.908;2022-12-29T04:03:19;36.45;;;14.35;;
70707;SDS011;58277;47.316;18.908;2022-12-29T04:05:42;39.00;;;14.77;;
70707;SDS011;58277;47.316;18.908;2022-12-29T04:08:05;38.63;;;14.37;;
70707;SDS011;58277;47.316;18.908;2022-12-29T04:10:28;36.55;;;13.95;;
70707;SDS011;58277;47.316;18.908;2022-12-29T04:12:53;39.85;;;13.55;;
70707;SDS011;58277;47.316;18.908;2022-12-29T04:15:17;38.33;;;14.73;;
70707;SDS011;58277;47.316;18.908;2022-12-29T04:17:40;38.03;;;14.23;;
70707;SDS011;58277;47.316;18.908;2022-12-29T04:20:03;34.63;;;13.23;;
70707;SDS011;58277;47.316;18.908;2022-12-29T04:22:46;38.42;;;13.57;;
70707;SDS011;58277;47.316;18.908;2022-12-29T04:25:09;37.35;;;14.32;;
70707;SDS011;58277;47.316;18.908;2022-12-29T04:27:32;36.35;;;13.88;;
70707;SDS011;58277;47.316;18.908;2022-12-29T04:30:22;37.65;;;13.90;;
70707;SDS011;58277;47.316;18.908;2022-12-29T04:32:58;40.57;;;13.80;;
70707;SDS011;58277;47.316;18.908;2022-12-29T04:35:22;42.97;;;14.30;;
70707;SDS011;58277;47.316;18.908;2022-12-29T04:37:45;36.58;;;14.13;;
70707;SDS011;58277;47.316;18.908;2022-12-29T04:40:08;37.97;;;14.35;;
70707;SDS011;58277;47.316;18.908;2022-12-29T04:42:31;39.90;;;14.80;;
70707;SDS011;58277;47.316;18.908;2022-12-29T04:44:54;36.13;;;13.70;;
70707;SDS011;58277;47.316;18.908;2022-12-29T04:47:30;36.00;;;13.02;;
70707;SDS011;58277;47.316;18.908;2022-12-29T04:50:00;37.70;;;13.95;;
70707;SDS011;58277;47.316;18.908;2022-12-29T04:52:35;35.50;;;13.93;;
70707;SDS011;58277;47.316;18.908;2022-12-29T04:54:58;37.67;;;14.20;;
70707;SDS011;58277;47.316;18.908;2022-12-29T04:57:21;38.43;;;14.17;;
70707;SDS011;58277;47.316;18.908;2022-12-29T04:59:47;41.35;;;15.20;;
70707;SDS011;58277;47.316;18.908;2022-12-29T05:02:10;42.22;;;14.43;;
70707;SDS011;58277;47.316;18.908;2022-12-29T05:04:33;38.28;;;13.50;;
70707;SDS011;58277;47.316;18.908;2022-12-29T05:06:57;41.28;;;14.10;;
70707;SDS011;58277;47.316;18.908;2022-12-29T05:09:20;37.87;;;13.90;;
70707;SDS011;58277;47.316;18.908;2022-12-29T05:11:43;35.10;;;13.05;;
70707;SDS011;58277;47.316;18.908;2022-12-29T05:14:06;36.75;;;13.90;;
70707;SDS011;58277;47.316;18.908;2022-12-29T05:16:30;36.55;;;13.70;;
70707;SDS011;58277;47.316;18.908;2022-12-29T05:18:53;38.20;;;14.18;;
70707;SDS011;58277;47.316;18.908;2022-12-29T05:21:16;39.00;;;13.47;;
70707;SDS011;58277;47.316;18.908;2022-12-29T05:23:39;36.92;;;14.63;;
70707;SDS011;58277;47.316;18.908;2022-12-29T05:26:02;36.75;;;13.75;;
70707;SDS011;58277;47.316;18.908;2022-12-29T05:28:45;38.10;;;14.38;;
70707;SDS011;58277;47.316;18.908;2022-12-29T05:31:12;41.20;;;15.35;;
70707;SDS011;58277;47.316;18.908;2022-12-29T05:33:35;35.97;;;13.53;;
70707;SDS011;58277;47.316;18.908;2022-12-29T05:36:03;40.08;;;14.10;;
70707;SDS011;58277;47.316;18.908;2022-12-29T05:38:27;40.90;;;14.63;;
70707;SDS011;58277;47.316;18.908;2022-12-29T05:40:49;40.35;;;15.40;;
70707;SDS011;58277;47.316;18.908;2022-12-29T05:43:35;40.05;;;14.82;;
70707;SDS011;58277;47.316;18.908;2022-12-29T05:46:30;38.57;;;14.07;;
70707;SDS011;58277;47.316;18.908;2022-12-29T05:49:11;40.22;;;14.07;;
70707;SDS011;58277;47.316;18.908;2022-12-29T05:52:12;36.95;;;14.15;;
70707;SDS011;58277;47.316;18.908;2022-12-29T05:54:35;37.55;;;14.65;;
70707;SDS011;58277;47.316;18.908;2022-12-29T05:57:04;34.20;;;14.57;;
70707;SDS011;58277;47.316;18.908;2022-12-29T05:59:28;44.30;;;15.37;;
70707;SDS011;58277;47.316;18.908;2022-12-29T06:01:50;39.90;;;14.68;;
70707;SDS011;58277;47.316;18.908;2022-12-29T06:04:14;39.15;;;15.38;;
70707;SDS011;58277;47.316;18.908;2022-12-29T06:06:37;39.80;;;13.73;;
70707;SDS011;58277;47.316;18.908;2022-12-29T06:09:05;41.70;;;14.90;;
70707;SDS011;58277;47.316;18.908;2022-12-29T06:11:28;44.77;;;16.50;;
70707;SDS011;58277;47.316;18.908;2022-12-29T06:13:53;43.85;;;15.52;;
70707;SDS011;58277;47.316;18.908;2022-12-29T06:16:17;48.50;;;16.58;;
70707;SDS011;58277;47.316;18.908;2022-12-29T06:18:41;42.33;;;15.82;;
70707;SDS011;58277;47.316;18.908;2022-12-29T06:21:04;46.53;;;17.05;;
70707;SDS011;58277;47.316;18.908;2022-12-29T06:23:27;46.63;;;16.63;;
70707;SDS011;58277;47.316;18.908;2022-12-29T06:25:50;48.22;;;17.95;;
70707;SDS011;58277;47.316;18.908;2022-12-29T06:28:13;51.53;;;18.45;;
70707;SDS011;58277;47.316;18.908;2022-12-29T06:30:36;46.63;;;17.67;;
70707;SDS011;58277;47.316;18.908;2022-12-29T06:32:59;51.40;;;17.30;;
70707;SDS011;58277;47.316;18.908;2022-12-29T06:35:22;51.30;;;17.43;;
70707;SDS011;58277;47.316;18.908;2022-12-29T06:37:46;46.42;;;16.77;;
70707;SDS011;58277;47.316;18.908;2022-12-29T06:40:09;45.63;;;17.00;;
70707;SDS011;58277;47.316;18.908;2022-12-29T06:43:06;44.88;;;16.73;;
70707;SDS011;58277;47.316;18.908;2022-12-29T06:45:39;43.63;;;17.30;;
70707;SDS011;58277;47.316;18.908;2022-12-29T06:48:02;49.27;;;16.93;;
70707;SDS011;58277;47.316;18.908;2022-12-29T06:50:25;48.00;;;17.38;;
70707;SDS011;58277;47.316;18.908;2022-12-29T06:52:48;53.95;;;17.90;;
70707;SDS011;58277;47.316;18.908;2022-12-29T06:55:10;45.00;;;16.83;;
70707;SDS011;58277;47.316;18.908;2022-12-29T06:57:33;50.78;;;17.50;;
70707;SDS011;58277;47.316;18.908;2022-12-29T06:59:56;51.77;;;16.07;;
70707;SDS011;58277;47.316;18.908;2022-12-29T07:02:18;41.30;;;15.82;;
70707;SDS011;58277;47.316;18.908;2022-12-29T07:04:42;47.13;;;16.88;;
70707;SDS011;58277;47.316;18.908;2022-12-29T07:07:04;47.70;;;16.88;;
70707;SDS011;58277;47.316;18.908;2022-12-29T07:09:27;40.88;;;16.35;;
70707;SDS011;58277;47.316;18.908;2022-12-29T07:11:50;43.63;;;15.20;;
70707;SDS011;58277;47.316;18.908;2022-12-29T07:14:14;48.15;;;17.35;;
70707;SDS011;58277;47.316;18.908;2022-12-29T07:16:36;46.38;;;17.30;;
70707;SDS011;58277;47.316;18.908;2022-12-29T07:19:00;47.17;;;15.93;;
70707;SDS011;58277;47.316;18.908;2022-12-29T07:21:23;47.20;;;17.90;;
70707;SDS011;58277;47.316;18.908;2022-12-29T07:23:45;49.10;;;17.63;;
70707;SDS011;58277;47.316;18.908;2022-12-29T07:26:09;48.88;;;17.75;;
70707;SDS011;58277;47.316;18.908;2022-12-29T07:28:35;48.72;;;18.08;;
70707;SDS011;58277;47.316;18.908;2022-12-29T07:30:58;48.85;;;17.17;;
70707;SDS011;58277;47.316;18.908;2022-12-29T07:33:21;45.63;;;17.88;;
70707;SDS011;58277;47.316;18.908;2022-12-29T07:35:43;47.27;;;17.57;;
70707;SDS011;58277;47.316;18.908;2022-12-29T07:38:06;46.72;;;17.52;;
70707;SDS011;58277;47.316;18.908;2022-12-29T07:40:29;49.25;;;18.13;;
70707;SDS011;58277;47.316;18.908;2022-12-29T07:42:51;46.22;;;18.45;;
70707;SDS011;58277;47.316;18.908;2022-12-29T07:45:22;48.53;;;18.05;;
70707;SDS011;58277;47.316;18.908;2022-12-29T07:47:57;43.10;;;15.50;;
70707;SDS011;58277;47.316;18.908;2022-12-29T07:50:20;50.35;;;17.35;;
70707;SDS011;58277;47.316;18.908;2022-12-29T07:52:43;44.90;;;16.50;;
70707;SDS011;58277;47.316;18.908;2022-12-29T07:55:07;41.15;;;15.85;;
70707;SDS011;58277;47.316;18.908;2022-12-29T07:57:30;47.03;;;17.75;;
70707;SDS011;58277;47.316;18.908;2022-12-29T07:59:53;45.53;;;16.77;;
70707;SDS011;58277;47.316;18.908;2022-12-29T08:02:16;45.25;;;16.92;;
70707;SDS011;58277;47.316;18.908;2022-12-29T08:04:39;46.00;;;18.65;;
70707;SDS011;58277;47.316;18.908;2022-12-29T08:07:01;44.88;;;17.73;;
70707;SDS011;58277;47.316;18.908;2022-12-29T08:09:24;48.90;;;18.27;;
70707;SDS011;58277;47.316;18.908;2022-12-29T08:11:47;51.53;;;18.57;;
70707;SDS011;58277;47.316;18.908;2022-12-29T08:14:10;50.45;;;18.05;;
70707;SDS011;58277;47.316;18.908;2022-12-29T08:16:33;50.03;;;18.88;;
70707;SDS011;58277;47.316;18.908;2022-12-29T08:22:00;46.45;;;18.35;;
70707;SDS011;58277;47.316;18.908;2022-12-29T08:24:22;53.70;;;19.03;;
70707;SDS011;58277;47.316;18.908;2022-12-29T08:26:45;51.38;;;18.58;;
70707;SDS011;58277;47.316;18.908;2022-12-29T08:29:08;50.45;;;19.70;;
70707;SDS011;58277;47.316;18.908;2022-12-29T08:31:30;56.35;;;19.13;;
70707;SDS011;58277;47.316;18.908;2022-12-29T08:33:53;51.65;;;19.85;;
70707;SDS011;58277;47.316;18.908;2022-12-29T08:36:16;48.37;;;18.73;;
70707;SDS011;58277;47.316;18.908;2022-12-29T08:38:39;48.75;;;18.85;;
70707;SDS011;58277;47.316;18.908;2022-12-29T08:41:02;53.70;;;19.50;;
70707;SDS011;58277;47.316;18.908;2022-12-29T08:43:24;54.38;;;21.05;;
70707;SDS011;58277;47.316;18.908;2022-12-29T08:45:47;50.85;;;19.92;;
70707;SDS011;58277;47.316;18.908;2022-12-29T08:48:10;53.53;;;20.57;;
70707;SDS011;58277;47.316;18.908;2022-12-29T08:50:33;49.42;;;18.63;;
70707;SDS011;58277;47.316;18.908;2022-12-29T08:52:56;55.80;;;20.92;;
70707;SDS011;58277;47.316;18.908;2022-12-29T08:55:18;53.85;;;19.30;;
70707;SDS011;58277;47.316;18.908;2022-12-29T08:57:42;52.58;;;19.75;;
70707;SDS011;58277;47.316;18.908;2022-12-29T09:00:10;49.47;;;19.97;;
70707;SDS011;58277;47.316;18.908;2022-12-29T09:02:33;51.15;;;19.42;;
70707;SDS011;58277;47.316;18.908;2022-12-29T09:04:56;57.38;;;20.48;;
70707;SDS011;58277;47.316;18.908;2022-12-29T09:07:24;51.90;;;20.80;;
70707;SDS011;58277;47.316;18.908;2022-12-29T09:09:47;59.50;;;21.55;;
70707;SDS011;58277;47.316;18.908;2022-12-29T09:12:10;54.87;;;20.10;;
70707;SDS011;58277;47.316;18.908;2022-12-29T09:14:33;56.30;;;20.98;;
70707;SDS011;58277;47.316;18.908;2022-12-29T09:16:55;52.80;;;20.63;;
70707;SDS011;58277;47.316;18.908;2022-12-29T09:19:37;48.25;;;19.45;;
70707;SDS011;58277;47.316;18.908;2022-12-29T09:21:59;56.97;;;21.20;;
70707;SDS011;58277;47.316;18.908;2022-12-29T09:24:22;48.57;;;19.57;;
70707;SDS011;58277;47.316;18.908;2022-12-29T09:26:45;55.20;;;20.25;;
70707;SDS011;58277;47.316;18.908;2022-12-29T09:29:08;58.65;;;21.77;;
70707;SDS011;58277;47.316;18.908;2022-12-29T09:31:31;54.83;;;19.50;;
70707;SDS011;58277;47.316;18.908;2022-12-29T09:33:54;51.60;;;20.48;;
70707;SDS011;58277;47.316;18.908;2022-12-29T09:36:17;52.73;;;19.97;;
70707;SDS011;58277;47.316;18.908;2022-12-29T09:38:40;58.22;;;21.20;;
70707;SDS011;58277;47.316;18.908;2022-12-29T09:47:16;50.65;;;20.48;;
70707;SDS011;58277;47.316;18.908;2022-12-29T09:49:45;56.10;;;21.57;;
70707;SDS011;58277;47.316;18.908;2022-12-29T09:52:15;53.03;;;20.85;;
70707;SDS011;58277;47.316;18.908;2022-12-29T10:08:06;57.58;;;22.42;;
70707;SDS011;58277;47.316;18.908;2022-12-29T10:10:40;52.63;;;21.52;;
70707;SDS011;58277;47.316;18.908;2022-12-29T10:24:42;57.58;;;22.42;;
70707;SDS011;58277;47.316;18.908;2022-12-29T10:27:10;59.00;;;23.27;;
70707;SDS011;58277;47.316;18.908;2022-12-29T10:29:36;67.60;;;24.23;;
70707;SDS011;58277;47.316;18.908;2022-12-29T10:32:04;56.78;;;22.27;;
70707;SDS011;58277;47.316;18.908;2022-12-29T10:34:39;59.97;;;24.05;;
70707;SDS011;58277;47.316;18.908;2022-12-29T10:39:55;59.75;;;23.58;;
70707;SDS011;58277;47.316;18.908;2022-12-29T10:42:28;53.97;;;21.90;;
70707;SDS011;58277;47.316;18.908;2022-12-29T10:44:55;62.05;;;23.23;;
70707;SDS011;58277;47.316;18.908;2022-12-29T10:47:20;63.95;;;24.60;;
70707;SDS011;58277;47.316;18.908;2022-12-29T10:49:46;54.35;;;23.02;;
70707;SDS011;58277;47.316;18.908;2022-12-29T10:52:10;59.78;;;23.85;;
70707;SDS011;58277;47.316;18.908;2022-12-29T10:54:45;56.70;;;23.57;;
70707;SDS011;58277;47.316;18.908;2022-12-29T10:57:30;56.67;;;23.33;;
70707;SDS011;58277;47.316;18.908;2022-12-29T10:59:56;57.03;;;24.02;;
70707;SDS011;58277;47.316;18.908;2022-12-29T11:07:36;56.23;;;22.43;;
70707;SDS011;58277;47.316;18.908;2022-12-29T11:13:03;51.45;;;21.92;;
70707;SDS011;58277;47.316;18.908;2022-12-29T11:21:00;55.33;;;22.27;;
70707;SDS011;58277;47.316;18.908;2022-12-29T11:23:32;55.53;;;21.83;;
70707;SDS011;58277;47.316;18.908;2022-12-29T11:26:05;53.25;;;22.10;;
70707;SDS011;58277;47.316;18.908;2022-12-29T11:28:28;55.38;;;23.80;;
70707;SDS011;58277;47.316;18.908;2022-12-29T11:30:59;56.45;;;22.75;;
70707;SDS011;58277;47.316;18.908;2022-12-29T11:33:23;58.70;;;22.70;;
70707;SDS011;58277;47.316;18.908;2022-12-29T11:35:56;55.95;;;21.98;;
70707;SDS011;58277;47.316;18.908;2022-12-29T11:38:22;55.05;;;24.08;;
70707;SDS011;58277;47.316;18.908;2022-12-29T11:40:49;56.30;;;23.33;;
70707;SDS011;58277;47.316;18.908;2022-12-29T11:43:23;57.50;;;23.35;;
70707;SDS011;58277;47.316;18.908;2022-12-29T11:45:55;53.33;;;22.27;;
70707;SDS011;58277;47.316;18.908;2022-12-29T11:48:19;54.63;;;23.27;;
70707;SDS011;58277;47.316;18.908;2022-12-29T11:50:48;55.10;;;23.80;;
70707;SDS011;58277;47.316;18.908;2022-12-29T11:53:15;55.67;;;22.52;;
70707;SDS011;58277;47.316;18.908;2022-12-29T11:55:50;56.30;;;23.15;;
70707;SDS011;58277;47.316;18.908;2022-12-29T11:58:18;57.03;;;23.40;;
70707;SDS011;58277;47.316;18.908;2022-12-29T12:00:40;57.58;;;24.23;;
70707;SDS011;58277;47.316;18.908;2022-12-29T12:03:15;56.97;;;23.80;;
70707;SDS011;58277;47.316;18.908;2022-12-29T12:05:52;56.90;;;24.75;;
70707;SDS011;58277;47.316;18.908;2022-12-29T12:08:21;54.85;;;23.65;;
70707;SDS011;58277;47.316;18.908;2022-12-29T12:10:58;57.87;;;24.23;;
70707;SDS011;58277;47.316;18.908;2022-12-29T12:13:35;50.88;;;23.02;;
70707;SDS011;58277;47.316;18.908;2022-12-29T12:16:22;56.28;;;23.45;;
70707;SDS011;58277;47.316;18.908;2022-12-29T12:19:02;54.10;;;23.95;;
70707;SDS011;58277;47.316;18.908;2022-12-29T12:21:37;59.28;;;26.00;;
70707;SDS011;58277;47.316;18.908;2022-12-29T12:30:10;50.92;;;21.75;;
70707;SDS011;58277;47.316;18.908;2022-12-29T12:35:14;57.65;;;24.05;;
70707;SDS011;58277;47.316;18.908;2022-12-29T12:40:46;55.88;;;23.42;;
70707;SDS011;58277;47.316;18.908;2022-12-29T13:00:57;61.08;;;24.98;;
70707;SDS011;58277;47.316;18.908;2022-12-29T13:06:13;62.50;;;25.47;;
70707;SDS011;58277;47.316;18.908;2022-12-29T13:19:32;58.10;;;24.00;;
70707;SDS011;58277;47.316;18.908;2022-12-29T13:22:18;60.40;;;24.42;;
70707;SDS011;58277;47.316;18.908;2022-12-29T13:24:53;58.42;;;24.60;;
70707;SDS011;58277;47.316;18.908;2022-12-29T13:30:01;55.72;;;23.27;;
70707;SDS011;58277;47.316;18.908;2022-12-29T13:32:32;58.53;;;25.50;;
70707;SDS011;58277;47.316;18.908;2022-12-29T13:37:24;60.53;;;25.80;;
70707;SDS011;58277;47.316;18.908;2022-12-29T13:39:55;59.28;;;24.75;;
70707;SDS011;58277;47.316;18.908;2022-12-29T13:42:26;63.17;;;26.38;;
70707;SDS011;58277;47.316;18.908;2022-12-29T13:44:54;60.00;;;24.87;;
70707;SDS011;58277;47.316;18.908;2022-12-29T13:49:47;64.13;;;26.08;;
70707;SDS011;58277;47.316;18.908;2022-12-29T13:52:13;57.75;;;24.63;;
70707;SDS011;58277;47.316;18.908;2022-12-29T13:54:45;61.55;;;24.73;;
70707;SDS011;58277;47.316;18.908;2022-12-29T13:57:36;64.63;;;25.10;;
70707;SDS011;58277;47.316;18.908;2022-12-29T14:00:02;63.17;;;25.92;;
70707;SDS011;58277;47.316;18.908;2022-12-29T14:02:46;60.90;;;26.85;;
70707;SDS011;58277;47.316;18.908;2022-12-29T14:05:27;57.85;;;26.20;;
70707;SDS011;58277;47.316;18.908;2022-12-29T14:07:59;59.22;;;25.80;;
70707;SDS011;58277;47.316;18.908;2022-12-29T14:13:10;60.00;;;24.48;;
70707;SDS011;58277;47.316;18.908;2022-12-29T14:15:37;57.45;;;25.10;;
70707;SDS011;58277;47.316;18.908;2022-12-29T14:20:37;59.13;;;24.33;;
70707;SDS011;58277;47.316;18.908;2022-12-29T14:28:29;54.97;;;24.10;;
70707;SDS011;58277;47.316;18.908;2022-12-29T14:30:54;56.22;;;23.40;;
70707;SDS011;58277;47.316;18.908;2022-12-29T14:33:19;60.00;;;25.00;;
70707;SDS011;58277;47.316;18.908;2022-12-29T14:35:44;63.97;;;24.33;;
70707;SDS011;58277;47.316;18.908;2022-12-29T14:38:18;60.88;;;24.70;;
70707;SDS011;58277;47.316;18.908;2022-12-29T14:40:43;54.88;;;23.23;;
70707;SDS011;58277;47.316;18.908;2022-12-29T14:43:11;57.75;;;23.75;;
70707;SDS011;58277;47.316;18.908;2022-12-29T14:45:36;63.75;;;24.17;;
70707;SDS011;58277;47.316;18.908;2022-12-29T14:48:01;57.47;;;23.30;;
70707;SDS011;58277;47.316;18.908;2022-12-29T14:50:54;61.28;;;24.63;;
70707;SDS011;58277;47.316;18.908;2022-12-29T14:56:04;62.72;;;23.45;;
70707;SDS011;58277;47.316;18.908;2022-12-29T14:58:28;57.97;;;24.10;;
70707;SDS011;58277;47.316;18.908;2022-12-29T15:00:55;61.57;;;24.10;;
70707;SDS011;58277;47.316;18.908;2022-12-29T15:03:53;57.78;;;24.05;;
70707;SDS011;58277;47.316;18.908;2022-12-29T15:06:08;59.75;;;23.27;;
70707;SDS011;58277;47.316;18.908;2022-12-29T15:08:38;58.65;;;23.90;;
70707;SDS011;58277;47.316;18.908;2022-12-29T15:11:09;59.83;;;24.13;;
70707;SDS011;58277;47.316;18.908;2022-12-29T15:13:38;57.93;;;23.63;;
70707;SDS011;58277;47.316;18.908;2022-12-29T15:16:26;63.30;;;23.98;;
70707;SDS011;58277;47.316;18.908;2022-12-29T15:18:53;65.32;;;24.88;;
70707;SDS011;58277;47.316;18.908;2022-12-29T15:21:16;65.50;;;24.88;;
70707;SDS011;58277;47.316;18.908;2022-12-29T15:23:43;65.03;;;25.10;;
70707;SDS011;58277;47.316;18.908;2022-12-29T15:26:07;65.43;;;25.57;;
70707;SDS011;58277;47.316;18.908;2022-12-29T15:28:41;67.80;;;26.73;;
70707;SDS011;58277;47.316;18.908;2022-12-29T15:31:10;65.90;;;26.42;;
70707;SDS011;58277;47.316;18.908;2022-12-29T15:33:37;66.78;;;24.55;;
70707;SDS011;58277;47.316;18.908;2022-12-29T15:36:03;65.60;;;25.38;;
70707;SDS011;58277;47.316;18.908;2022-12-29T15:38:31;61.17;;;24.50;;
70707;SDS011;58277;47.316;18.908;2022-12-29T15:41:05;59.45;;;23.30;;
70707;SDS011;58277;47.316;18.908;2022-12-29T15:46:29;58.65;;;23.55;;
70707;SDS011;58277;47.316;18.908;2022-12-29T15:48:53;63.13;;;24.05;;
70707;SDS011;58277;47.316;18.908;2022-12-29T15:51:20;59.47;;;23.40;;
70707;SDS011;58277;47.316;18.908;2022-12-29T15:53:50;61.65;;;23.70;;
70707;SDS011;58277;47.316;18.908;2022-12-29T15:56:14;60.50;;;24.17;;
70707;SDS011;58277;47.316;18.908;2022-12-29T15:58:50;61.47;;;23.45;;
70707;SDS011;58277;47.316;18.908;2022-12-29T16:01:17;59.22;;;22.95;;
70707;SDS011;58277;47.316;18.908;2022-12-29T16:03:41;52.30;;;21.50;;
70707;SDS011;58277;47.316;18.908;2022-12-29T16:06:54;61.00;;;22.95;;
70707;SDS011;58277;47.316;18.908;2022-12-29T16:11:22;58.03;;;24.00;;
70707;SDS011;58277;47.316;18.908;2022-12-29T16:13:49;59.65;;;23.33;;
70707;SDS011;58277;47.316;18.908;2022-12-29T16:16:16;65.70;;;23.87;;
70707;SDS011;58277;47.316;18.908;2022-12-29T16:18:43;64.30;;;24.52;;
70707;SDS011;58277;47.316;18.908;2022-12-29T16:21:15;63.25;;;24.10;;
70707;SDS011;58277;47.316;18.908;2022-12-29T16:23:42;65.38;;;24.48;;
70707;SDS011;58277;47.316;18.908;2022-12-29T16:26:13;62.83;;;24.85;;
70707;SDS011;58277;47.316;18.908;2022-12-29T16:28:40;69.50;;;26.70;;
70707;SDS011;58277;47.316;18.908;2022-12-29T16:31:13;71.63;;;26.65;;
70707;SDS011;58277;47.316;18.908;2022-12-29T16:39:02;69.72;;;28.23;;
70707;SDS011;58277;47.316;18.908;2022-12-29T16:41:37;75.47;;;27.23;;
70707;SDS011;58277;47.316;18.908;2022-12-29T16:47:02;67.72;;;26.20;;
70707;SDS011;58277;47.316;18.908;2022-12-29T16:49:25;70.40;;;26.65;;
70707;SDS011;58277;47.316;18.908;2022-12-29T16:51:48;68.95;;;26.65;;
70707;SDS011;58277;47.316;18.908;2022-12-29T16:54:18;69.73;;;26.50;;
70707;SDS011;58277;47.316;18.908;2022-12-29T16:56:44;70.03;;;25.80;;
70707;SDS011;58277;47.316;18.908;2022-12-29T17:02:13;55.15;;;21.42;;
70707;SDS011;58277;47.316;18.908;2022-12-29T17:04:37;62.40;;;22.98;;